sensor_id;sensor_type;location;lat;lon;timestamp;pressure;altitude;pressure_sealevel;temperature;humidity
50123;BME280;36021;48.670;6.184;2023-03-15T00:01:10;98985.34;;;2.89;100.00
50123;BME280;36021;48.670;6.184;2023-03-15T00:03:40;98983.69;;;2.88;100.00
50123;BME280;36021;48.670;6.184;2023-03-15T00:06:07;98985.03;;;3.02;100.00
50123;BME280;36021;48.670;6.184;2023-03-15T00:08:33;98985.53;;;2.99;100.00
50123;BME280;36021;48.670;6.184;2023-03-15T00:11:00;98987.00;;;3.07;100.00
50123;BME280;36021;48.670;6.184;2023-03-15T00:13:26;98987.25;;;3.05;100.00
50123;BME280;36021;48.670;6.184;2023-03-15T00:15:56;98977.59;;;3.14;100.00
50123;BME280;36021;48.670;6.184;2023-03-15T00:18:25;98985.19;;;3.12;100.00
50123;BME280;36021;48.670;6.184;2023-03-15T00:20:53;98975.47;;;3.17;100.00
50123;BME280;36021;48.670;6.184;2023-03-15T00:23:19;98979.25;;;3.15;100.00
50123;BME280;36021;48.670;6.184;2023-03-15T00:25:46;98982.31;;;3.02;100.00
50123;BME280;36021;48.670;6.184;2023-03-15T00:28:13;98988.91;;;3.06;100.00
50123;BME280;36021;48.670;6.184;2023-03-15T00:30:39;98988.47;;;3.14;100.00
50123;BME280;36021;48.670;6.184;2023-03-15T00:33:06;98999.53;;;3.08;100.00
50123;BME280;36021;48.670;6.184;2023-03-15T00:35:32;99002.25;;;3.08;100.00
50123;BME280;36021;48.670;6.184;2023-03-15T00:37:59;99001.84;;;2.99;100.00
50123;BME280;36021;48.670;6.184;2023-03-15T00:40:25;99007.13;;;2.89;100.00
50123;BME280;36021;48.670;6.184;2023-03-15T00:42:52;99010.50;;;2.96;100.00
50123;BME280;36021;48.670;6.184;2023-03-15T00:45:20;99016.25;;;2.83;100.00
50123;BME280;36021;48.670;6.184;2023-03-15T00:47:51;99015.78;;;2.86;100.00
50123;BME280;36021;48.670;6.184;2023-03-15T00:50:20;99017.97;;;2.73;100.00
50123;BME280;36021;48.670;6.184;2023-03-15T00:52:47;99020.94;;;2.71;100.00
50123;BME280;36021;48.670;6.184;2023-03-15T00:55:15;99026.13;;;2.73;100.00
50123;BME280;36021;48.670;6.184;2023-03-15T00:57:43;99024.16;;;2.68;100.00
50123;BME280;36021;48.670;6.184;2023-03-15T01:00:13;99027.59;;;2.63;100.00
50123;BME280;36021;48.670;6.184;2023-03-15T01:02:40;99021.75;;;2.72;100.00
50123;BME280;36021;48.670;6.184;2023-03-15T01:05:08;99022.25;;;2.69;100.00
50123;BME280;36021;48.670;6.184;2023-03-15T01:07:34;99017.06;;;2.67;100.00
50123;BME280;36021;48.670;6.184;2023-03-15T01:10:02;99022.38;;;2.62;100.00
50123;BME280;36021;48.670;6.184;2023-03-15T01:12:30;99023.84;;;2.53;100.00
50123;BME280;36021;48.670;6.184;2023-03-15T01:14:57;99030.31;;;2.63;100.00
50123;BME280;36021;48.670;6.184;2023-03-15T01:17:23;99025.56;;;2.71;100.00
50123;BME280;36021;48.670;6.184;2023-03-15T01:19:49;99030.31;;;2.63;100.00
50123;BME280;36021;48.670;6.184;2023-03-15T01:22:18;99029.75;;;2.61;100.00
50123;BME280;36021;48.670;6.184;2023-03-15T01:24:44;99031.72;;;2.66;100.00
50123;BME280;36021;48.670;6.184;2023-03-15T01:27:10;99040.72;;;2.67;100.00
50123;BME280;36021;48.670;6.184;2023-03-15T01:29:36;99042.13;;;2.69;100.00
50123;BME280;36021;48.670;6.184;2023-03-15T01:32:04;99045.81;;;2.63;100.00
50123;BME280;36021;48.670;6.184;2023-03-15T01:34:30;99049.09;;;2.65;100.00
50123;BME280;36021;48.670;6.184;2023-03-15T01:36:55;99055.38;;;2.66;100.00
50123;BME280;36021;48.670;6.184;2023-03-15T01:39:27;99048.38;;;2.70;100.00
50123;BME280;36021;48.670;6.184;2023-03-15T01:41:57;99056.22;;;2.66;100.00
50123;BME280;36021;48.670;6.184;2023-03-15T01:47:12;99055.63;;;2.64;100.00
50123;BME280;36021;48.670;6.184;2023-03-15T01:49:37;99054.75;;;2.75;100.00
50123;BME280;36021;48.670;6.184;2023-03-15T01:52:08;99048.34;;;2.81;100.00
50123;BME280;36021;48.670;6.184;2023-03-15T01:55:13;99055.09;;;2.79;100.00
50123;BME280;36021;48.670;6.184;2023-03-15T01:57:57;99060.38;;;2.85;100.00
50123;BME280;36021;48.670;6.184;2023-03-15T02:00:26;99052.81;;;2.87;100.00
50123;BME280;36021;48.670;6.184;2023-03-15T02:03:07;99055.09;;;2.79;100.00
50123;BME280;36021;48.670;6.184;2023-03-15T02:05:39;99047.56;;;2.69;100.00
50123;BME280;36021;48.670;6.184;2023-03-15T02:08:12;99059.19;;;2.65;100.00
50123;BME280;36021;48.670;6.184;2023-03-15T02:10:43;99057.19;;;2.60;100.00
50123;BME280;36021;48.670;6.184;2023-03-15T02:13:12;99056.13;;;2.61;100.00
50123;BME280;36021;48.670;6.184;2023-03-15T02:15:39;99052.72;;;2.54;100.00
50123;BME280;36021;48.670;6.184;2023-03-15T02:18:12;99058.16;;;2.54;100.00
50123;BME280;36021;48.670;6.184;2023-03-15T02:23:18;99055.72;;;2.41;100.00
50123;BME280;36021;48.670;6.184;2023-03-15T02:26:00;99058.53;;;2.46;100.00
50123;BME280;36021;48.670;6.184;2023-03-15T02:28:29;99062.91;;;2.47;100.00
50123;BME280;36021;48.670;6.184;2023-03-15T02:30:55;99056.97;;;2.50;100.00
50123;BME280;36021;48.670;6.184;2023-03-15T02:33:43;99056.28;;;2.43;100.00
50123;BME280;36021;48.670;6.184;2023-03-15T02:36:21;99063.03;;;2.52;100.00
50123;BME280;36021;48.670;6.184;2023-03-15T02:38:48;99060.88;;;2.54;100.00
50123;BME280;36021;48.670;6.184;2023-03-15T02:41:23;99049.59;;;2.62;100.00
50123;BME280;36021;48.670;6.184;2023-03-15T02:43:55;99050.28;;;2.69;100.00
50123;BME280;36021;48.670;6.184;2023-03-15T02:46:23;99046.84;;;2.74;100.00
50123;BME280;36021;48.670;6.184;2023-03-15T02:48:49;99054.75;;;2.75;100.00
50123;BME280;36021;48.670;6.184;2023-03-15T02:51:20;99051.22;;;2.75;100.00
50123;BME280;36021;48.670;6.184;2023-03-15T02:53:47;99060.28;;;2.80;100.00
50123;BME280;36021;48.670;6.184;2023-03-15T02:56:13;99067.56;;;2.63;100.00
50123;BME280;36021;48.670;6.184;2023-03-15T02:58:39;99065.97;;;2.79;100.00
50123;BME280;36021;48.670;6.184;2023-03-15T03:01:05;99072.72;;;2.76;100.00
50123;BME280;36021;48.670;6.184;2023-03-15T03:03:31;99067.53;;;2.75;100.00
50123;BME280;36021;48.670;6.184;2023-03-15T03:05:59;99065.63;;;2.75;100.00
50123;BME280;36021;48.670;6.184;2023-03-15T03:08:25;99061.16;;;2.69;100.00
50123;BME280;36021;48.670;6.184;2023-03-15T03:10:51;99062.81;;;2.70;100.00
50123;BME280;36021;48.670;6.184;2023-03-15T03:13:17;99062.91;;;2.75;100.00
50123;BME280;36021;48.670;6.184;2023-03-15T03:15:42;99060.00;;;2.65;100.00
50123;BME280;36021;48.670;6.184;2023-03-15T03:18:11;99069.38;;;2.57;100.00
50123;BME280;36021;48.670;6.184;2023-03-15T03:20:38;99075.50;;;2.65;100.00
50123;BME280;36021;48.670;6.184;2023-03-15T03:23:05;99074.69;;;2.64;100.00
50123;BME280;36021;48.670;6.184;2023-03-15T03:25:31;99081.28;;;2.68;100.00
50123;BME280;36021;48.670;6.184;2023-03-15T03:27:58;99077.34;;;2.76;100.00
50123;BME280;36021;48.670;6.184;2023-03-15T03:30:26;99075.06;;;2.84;100.00
50123;BME280;36021;48.670;6.184;2023-03-15T03:32:52;99075.72;;;2.91;100.00
50123;BME280;36021;48.670;6.184;2023-03-15T03:35:19;99072.34;;;2.84;100.00
50123;BME280;36021;48.670;6.184;2023-03-15T03:37:44;99066.72;;;2.74;100.00
50123;BME280;36021;48.670;6.184;2023-03-15T03:40:21;99070.50;;;2.73;100.00
50123;BME280;36021;48.670;6.184;2023-03-15T03:42:47;99067.09;;;2.66;100.00
50123;BME280;36021;48.670;6.184;2023-03-15T03:45:16;99074.69;;;2.64;100.00
50123;BME280;36021;48.670;6.184;2023-03-15T03:47:45;99078.03;;;2.83;100.00
50123;BME280;36021;48.670;6.184;2023-03-15T03:50:12;99087.69;;;2.90;100.00
50123;BME280;36021;48.670;6.184;2023-03-15T03:52:38;99087.09;;;2.88;100.00
50123;BME280;36021;48.670;6.184;2023-03-15T03:55:08;99095.19;;;2.83;100.00
50123;BME280;36021;48.670;6.184;2023-03-15T03:57:34;99098.97;;;2.82;100.00
50123;BME280;36021;48.670;6.184;2023-03-15T03:59:59;99105.09;;;2.89;100.00
50123;BME280;36021;48.670;6.184;2023-03-15T04:02:27;99107.94;;;2.94;100.00
50123;BME280;36021;48.670;6.184;2023-03-15T04:04:59;99111.09;;;2.91;100.00
50123;BME280;36021;48.670;6.184;2023-03-15T04:07:27;99108.06;;;2.88;100.00
50123;BME280;36021;48.670;6.184;2023-03-15T04:09:53;99105.09;;;2.89;100.00
50123;BME280;36021;48.670;6.184;2023-03-15T04:12:19;99103.84;;;2.80;100.00
50123;BME280;36021;48.670;6.184;2023-03-15T04:14:45;99102.28;;;2.84;100.00
50123;BME280;36021;48.670;6.184;2023-03-15T04:17:11;99119.41;;;2.85;100.00
50123;BME280;36021;48.670;6.184;2023-03-15T04:19:37;99115.41;;;2.87;100.00
50123;BME280;36021;48.670;6.184;2023-03-15T04:22:05;99113.97;;;2.85;100.00
50123;BME280;36021;48.670;6.184;2023-03-15T04:24:41;99115.78;;;2.79;100.00
50123;BME280;36021;48.670;6.184;2023-03-15T04:27:32;99113.81;;;2.75;100.00
50123;BME280;36021;48.670;6.184;2023-03-15T04:30:05;99117.72;;;2.67;100.00
50123;BME280;36021;48.670;6.184;2023-03-15T04:32:31;99113.34;;;2.66;100.00
50123;BME280;36021;48.670;6.184;2023-03-15T04:35:33;99112.75;;;2.64;100.00
50123;BME280;36021;48.670;6.184;2023-03-15T04:38:21;99114.31;;;2.60;100.00
50123;BME280;36021;48.670;6.184;2023-03-15T04:41:09;99120.22;;;2.57;100.00
50123;BME280;36021;48.670;6.184;2023-03-15T04:43:53;99119.53;;;2.50;100.00
50123;BME280;36021;48.670;6.184;2023-03-15T04:46:55;99120.59;;;2.49;100.00
50123;BME280;36021;48.670;6.184;2023-03-15T04:49:56;99116.25;;;2.48;100.00
50123;BME280;36021;48.670;6.184;2023-03-15T04:52:31;99110.69;;;2.43;100.00
50123;BME280;36021;48.670;6.184;2023-03-15T04:55:16;99114.34;;;2.48;100.00
50123;BME280;36021;48.670;6.184;2023-03-15T04:58:04;99106.63;;;2.57;100.00
50123;BME280;36021;48.670;6.184;2023-03-15T05:00:45;99106.53;;;2.52;100.00
50123;BME280;36021;48.670;6.184;2023-03-15T05:03:37;99109.72;;;2.49;100.00
50123;BME280;36021;48.670;6.184;2023-03-15T05:06:24;99108.56;;;2.45;100.00
50123;BME280;36021;48.670;6.184;2023-03-15T05:09:09;99106.84;;;2.55;100.00
50123;BME280;36021;48.670;6.184;2023-03-15T05:11:53;99099.31;;;2.46;100.00
50123;BME280;36021;48.670;6.184;2023-03-15T05:14:38;99102.78;;;2.41;100.00
50123;BME280;36021;48.670;6.184;2023-03-15T05:17:04;99104.63;;;2.52;100.00
50123;BME280;36021;48.670;6.184;2023-03-15T05:19:49;99106.41;;;2.47;100.00
50123;BME280;36021;48.670;6.184;2023-03-15T05:22:28;99116.44;;;2.58;100.00
50123;BME280;36021;48.670;6.184;2023-03-15T05:25:27;99120.59;;;2.49;100.00
50123;BME280;36021;48.670;6.184;2023-03-15T05:28:11;99120.13;;;2.52;100.00
50123;BME280;36021;48.670;6.184;2023-03-15T05:30:39;99128.31;;;2.52;100.00
50123;BME280;36021;48.670;6.184;2023-03-15T05:33:23;99136.66;;;2.62;100.00
50123;BME280;36021;48.670;6.184;2023-03-15T05:36:24;99139.00;;;2.70;100.00
50123;BME280;36021;48.670;6.184;2023-03-15T05:39:18;99146.34;;;2.70;100.00
50123;BME280;36021;48.670;6.184;2023-03-15T05:42:06;99140.41;;;2.73;100.00
50123;BME280;36021;48.670;6.184;2023-03-15T05:45:06;99153.03;;;2.79;100.00
50123;BME280;36021;48.670;6.184;2023-03-15T05:47:58;99145.72;;;2.79;100.00
50123;BME280;36021;48.670;6.184;2023-03-15T05:50:44;99156.84;;;2.78;100.00
50123;BME280;36021;48.670;6.184;2023-03-15T05:53:37;99157.34;;;2.75;100.00
50123;BME280;36021;48.670;6.184;2023-03-15T05:56:21;99158.41;;;2.74;100.00
50123;BME280;36021;48.670;6.184;2023-03-15T05:59:11;99151.63;;;2.76;100.00
50123;BME280;36021;48.670;6.184;2023-03-15T06:02:00;99159.09;;;2.69;100.00
50123;BME280;36021;48.670;6.184;2023-03-15T06:04:33;99166.78;;;2.72;100.00
50123;BME280;36021;48.670;6.184;2023-03-15T06:06:59;99172.97;;;2.68;100.00
50123;BME280;36021;48.670;6.184;2023-03-15T06:09:25;99181.13;;;2.56;100.00
50123;BME280;36021;48.670;6.184;2023-03-15T06:11:51;99179.16;;;2.51;100.00
50123;BME280;36021;48.670;6.184;2023-03-15T06:14:18;99182.09;;;2.50;100.00
50123;BME280;36021;48.670;6.184;2023-03-15T06:16:47;99183.63;;;2.46;100.00
50123;BME280;36021;48.670;6.184;2023-03-15T06:19:13;99182.09;;;2.50;100.00
50123;BME280;36021;48.670;6.184;2023-03-15T06:21:40;99185.75;;;2.55;100.00
50123;BME280;36021;48.670;6.184;2023-03-15T06:24:12;99193.28;;;2.65;100.00
50123;BME280;36021;48.670;6.184;2023-03-15T06:26:39;99184.31;;;2.65;100.00
50123;BME280;36021;48.670;6.184;2023-03-15T06:29:06;99182.31;;;2.60;100.00
50123;BME280;36021;48.670;6.184;2023-03-15T06:31:32;99183.63;;;2.57;100.00
50123;BME280;36021;48.670;6.184;2023-03-15T06:34:03;99177.84;;;2.54;100.00
50123;BME280;36021;48.670;6.184;2023-03-15T06:36:28;99171.78;;;2.63;100.00
50123;BME280;36021;48.670;6.184;2023-03-15T06:38:55;99167.97;;;2.76;100.00
50123;BME280;36021;48.670;6.184;2023-03-15T06:41:21;99171.59;;;2.93;100.00
50123;BME280;36021;48.670;6.184;2023-03-15T06:43:50;99172.78;;;2.86;100.00
50123;BME280;36021;48.670;6.184;2023-03-15T06:46:16;99164.00;;;2.95;100.00
50123;BME280;36021;48.670;6.184;2023-03-15T06:48:43;99177.44;;;3.13;100.00
50123;BME280;36021;48.670;6.184;2023-03-15T06:51:10;99177.28;;;3.20;100.00
50123;BME280;36021;48.670;6.184;2023-03-15T06:53:36;99178.28;;;3.31;100.00
50123;BME280;36021;48.670;6.184;2023-03-15T06:56:03;99177.97;;;3.44;100.00
50123;BME280;36021;48.670;6.184;2023-03-15T06:58:29;99174.44;;;3.60;100.00
50123;BME280;36021;48.670;6.184;2023-03-15T07:00:55;99184.28;;;3.61;100.00
50123;BME280;36021;48.670;6.184;2023-03-15T07:03:21;99178.03;;;3.77;100.00
50123;BME280;36021;48.670;6.184;2023-03-15T07:05:48;99183.75;;;3.92;100.00
50123;BME280;36021;48.670;6.184;2023-03-15T07:08:17;99177.34;;;4.03;100.00
50123;BME280;36021;48.670;6.184;2023-03-15T07:10:44;99179.09;;;4.09;100.00
50123;BME280;36021;48.670;6.184;2023-03-15T07:13:11;99179.69;;;4.11;100.00
50123;BME280;36021;48.670;6.184;2023-03-15T07:15:37;99178.94;;;3.99;100.00
50123;BME280;36021;48.670;6.184;2023-03-15T07:18:03;99181.56;;;4.11;100.00
50123;BME280;36021;48.670;6.184;2023-03-15T07:20:29;99178.91;;;4.33;100.00
50123;BME280;36021;48.670;6.184;2023-03-15T07:22:56;99182.66;;;4.48;100.00
50123;BME280;36021;48.670;6.184;2023-03-15T07:25:23;99179.34;;;4.25;100.00
50123;BME280;36021;48.670;6.184;2023-03-15T07:27:50;99181.22;;;4.41;100.00
50123;BME280;36021;48.670;6.184;2023-03-15T07:30:17;99186.06;;;4.39;100.00
50123;BME280;36021;48.670;6.184;2023-03-15T07:32:43;99185.56;;;4.42;100.00
50123;BME280;36021;48.670;6.184;2023-03-15T07:35:12;99188.75;;;4.34;100.00
50123;BME280;36021;48.670;6.184;2023-03-15T07:37:38;99191.53;;;4.39;100.00
50123;BME280;36021;48.670;6.184;2023-03-15T07:40:05;99179.94;;;4.48;100.00
50123;BME280;36021;48.670;6.184;2023-03-15T07:42:35;99186.53;;;4.52;100.00
50123;BME280;36021;48.670;6.184;2023-03-15T07:45:03;99192.00;;;4.52;100.00
50123;BME280;36021;48.670;6.184;2023-03-15T07:47:29;99191.97;;;4.69;100.00
50123;BME280;36021;48.670;6.184;2023-03-15T07:49:55;99199.97;;;4.54;100.00
50123;BME280;36021;48.670;6.184;2023-03-15T07:52:21;99190.19;;;4.80;100.00
50123;BME280;36021;48.670;6.184;2023-03-15T07:54:48;99194.28;;;4.77;100.00
50123;BME280;36021;48.670;6.184;2023-03-15T07:57:14;99191.31;;;4.62;100.00
50123;BME280;36021;48.670;6.184;2023-03-15T07:59:40;99197.06;;;4.82;100.00
50123;BME280;36021;48.670;6.184;2023-03-15T08:02:08;99195.28;;;4.93;100.00
50123;BME280;36021;48.670;6.184;2023-03-15T08:04:34;99199.03;;;5.08;100.00
50123;BME280;36021;48.670;6.184;2023-03-15T08:07:00;99208.19;;;5.46;100.00
50123;BME280;36021;48.670;6.184;2023-03-15T08:09:27;99211.72;;;5.95;100.00
50123;BME280;36021;48.670;6.184;2023-03-15T08:11:53;99214.97;;;6.23;100.00
50123;BME280;36021;48.670;6.184;2023-03-15T08:14:19;99210.31;;;6.66;100.00
50123;BME280;36021;48.670;6.184;2023-03-15T08:16:45;99199.19;;;9.50;100.00
50123;BME280;36021;48.670;6.184;2023-03-15T08:19:10;99205.06;;;9.28;100.00
50123;BME280;36021;48.670;6.184;2023-03-15T08:21:36;99204.63;;;10.38;100.00
50123;BME280;36021;48.670;6.184;2023-03-15T08:24:03;99213.38;;;10.74;100.00
50123;BME280;36021;48.670;6.184;2023-03-15T08:26:29;99201.44;;;11.92;100.00
50123;BME280;36021;48.670;6.184;2023-03-15T08:28:55;99210.41;;;13.54;100.00
50123;BME280;36021;48.670;6.184;2023-03-15T08:31:21;99202.50;;;14.86;100.00
50123;BME280;36021;48.670;6.184;2023-03-15T08:33:47;99200.94;;;16.15;100.00
50123;BME280;36021;48.670;6.184;2023-03-15T08:36:12;99205.94;;;17.95;96.35
50123;BME280;36021;48.670;6.184;2023-03-15T08:38:38;99211.84;;;18.35;87.28
50123;BME280;36021;48.670;6.184;2023-03-15T08:41:05;99206.31;;;16.72;100.00
50123;BME280;36021;48.670;6.184;2023-03-15T08:43:31;99207.97;;;17.86;92.46
50123;BME280;36021;48.670;6.184;2023-03-15T08:45:57;99209.44;;;18.66;85.21
50123;BME280;36021;48.670;6.184;2023-03-15T08:48:23;99198.53;;;18.73;78.78
50123;BME280;36021;48.670;6.184;2023-03-15T08:50:48;99206.81;;;19.27;78.38
50123;BME280;36021;48.670;6.184;2023-03-15T08:53:14;99204.91;;;18.20;87.14
50123;BME280;36021;48.670;6.184;2023-03-15T08:55:40;99209.09;;;16.29;100.00
50123;BME280;36021;48.670;6.184;2023-03-15T08:58:06;99224.03;;;15.11;100.00
50123;BME280;36021;48.670;6.184;2023-03-15T09:00:32;99220.72;;;12.94;100.00
50123;BME280;36021;48.670;6.184;2023-03-15T09:02:58;99220.38;;;12.17;100.00
50123;BME280;36021;48.670;6.184;2023-03-15T09:05:25;99221.16;;;12.04;100.00
50123;BME280;36021;48.670;6.184;2023-03-15T09:07:50;99230.41;;;11.52;100.00
50123;BME280;36021;48.670;6.184;2023-03-15T09:10:21;99221.09;;;11.67;100.00
50123;BME280;36021;48.670;6.184;2023-03-15T09:12:49;99216.16;;;12.38;100.00
50123;BME280;36021;48.670;6.184;2023-03-15T09:15:15;99217.34;;;14.01;100.00
50123;BME280;36021;48.670;6.184;2023-03-15T09:17:41;99206.63;;;13.86;100.00
50123;BME280;36021;48.670;6.184;2023-03-15T09:20:10;99223.94;;;12.36;100.00
50123;BME280;36021;48.670;6.184;2023-03-15T09:22:52;99228.16;;;11.78;100.00
50123;BME280;36021;48.670;6.184;2023-03-15T09:25:19;99235.41;;;10.79;100.00
50123;BME280;36021;48.670;6.184;2023-03-15T09:27:45;99234.09;;;10.37;100.00
50123;BME280;36021;48.670;6.184;2023-03-15T09:30:11;99231.16;;;10.29;100.00
50123;BME280;36021;48.670;6.184;2023-03-15T09:32:37;99237.34;;;10.11;100.00
50123;BME280;36021;48.670;6.184;2023-03-15T09:35:04;99242.59;;;9.63;100.00
50123;BME280;36021;48.670;6.184;2023-03-15T09:37:30;99248.03;;;9.73;100.00
50123;BME280;36021;48.670;6.184;2023-03-15T09:39:56;99251.50;;;9.45;100.00
50123;BME280;36021;48.670;6.184;2023-03-15T09:42:39;99247.97;;;9.24;100.00
50123;BME280;36021;48.670;6.184;2023-03-15T09:45:26;99259.69;;;8.51;100.00
50123;BME280;36021;48.670;6.184;2023-03-15T09:48:04;99258.03;;;8.70;100.00
50123;BME280;36021;48.670;6.184;2023-03-15T09:50:39;99259.63;;;8.96;100.00
50123;BME280;36021;48.670;6.184;2023-03-15T09:53:19;99256.34;;;7.98;100.00
50123;BME280;36021;48.670;6.184;2023-03-15T09:55:49;99256.34;;;8.13;100.00
50123;BME280;36021;48.670;6.184;2023-03-15T09:58:27;99271.97;;;8.03;100.00
50123;BME280;36021;48.670;6.184;2023-03-15T10:01:16;99254.44;;;8.14;100.00
50123;BME280;36021;48.670;6.184;2023-03-15T10:03:52;99263.22;;;8.26;100.00
50123;BME280;36021;48.670;6.184;2023-03-15T10:06:29;99258.56;;;8.42;100.00
50123;BME280;36021;48.670;6.184;2023-03-15T10:09:09;99256.63;;;8.77;100.00
50123;BME280;36021;48.670;6.184;2023-03-15T10:12:02;99255.78;;;8.77;100.00
50123;BME280;36021;48.670;6.184;2023-03-15T10:20:20;99241.69;;;10.22;100.00
50123;BME280;36021;48.670;6.184;2023-03-15T10:23:00;99250.31;;;9.61;100.00
50123;BME280;36021;48.670;6.184;2023-03-15T10:25:30;99247.88;;;9.55;100.00
50123;BME280;36021;48.670;6.184;2023-03-15T10:30:48;99250.41;;;9.36;100.00
50123;BME280;36021;48.670;6.184;2023-03-15T10:33:30;99254.97;;;8.86;100.00
50123;BME280;36021;48.670;6.184;2023-03-15T10:35:59;99262.66;;;8.84;100.00
50123;BME280;36021;48.670;6.184;2023-03-15T10:38:26;99240.09;;;8.98;100.00
50123;BME280;36021;48.670;6.184;2023-03-15T10:40:55;99248.63;;;8.96;100.00
50123;BME280;36021;48.670;6.184;2023-03-15T10:43:26;99245.06;;;8.96;100.00
50123;BME280;36021;48.670;6.184;2023-03-15T10:46:21;99254.72;;;8.73;100.00
50123;BME280;36021;48.670;6.184;2023-03-15T10:49:08;99252.53;;;8.60;100.00
50123;BME280;36021;48.670;6.184;2023-03-15T10:51:42;99260.78;;;8.45;100.00
50123;BME280;36021;48.670;6.184;2023-03-15T10:54:18;99256.13;;;8.40;100.00
50123;BME280;36021;48.670;6.184;2023-03-15T10:59:29;99251.69;;;8.74;100.00
50123;BME280;36021;48.670;6.184;2023-03-15T11:02:19;99252.44;;;9.05;100.00
50123;BME280;36021;48.670;6.184;2023-03-15T11:07:52;99252.00;;;8.63;100.00
50123;BME280;36021;48.670;6.184;2023-03-15T11:10:24;99238.47;;;9.56;100.00
50123;BME280;36021;48.670;6.184;2023-03-15T11:13:08;99243.50;;;10.94;100.00
50123;BME280;36021;48.670;6.184;2023-03-15T11:15:35;99243.97;;;11.01;100.00
50123;BME280;36021;48.670;6.184;2023-03-15T11:18:01;99247.03;;;10.42;100.00
50123;BME280;36021;48.670;6.184;2023-03-15T11:20:30;99235.78;;;12.23;100.00
50123;BME280;36021;48.670;6.184;2023-03-15T11:22:58;99225.56;;;14.06;100.00
50123;BME280;36021;48.670;6.184;2023-03-15T11:25:28;99240.06;;;14.03;100.00
50123;BME280;36021;48.670;6.184;2023-03-15T11:27:59;99243.03;;;14.06;100.00
50123;BME280;36021;48.670;6.184;2023-03-15T11:30:29;99238.88;;;12.35;100.00
50123;BME280;36021;48.670;6.184;2023-03-15T11:33:02;99241.34;;;11.38;100.00
50123;BME280;36021;48.670;6.184;2023-03-15T11:35:34;99257.19;;;11.04;100.00
50123;BME280;36021;48.670;6.184;2023-03-15T11:38:11;99258.97;;;10.61;100.00
50123;BME280;36021;48.670;6.184;2023-03-15T11:40:45;99267.09;;;10.48;100.00
50123;BME280;36021;48.670;6.184;2023-03-15T11:46:05;99268.84;;;9.35;100.00
50123;BME280;36021;48.670;6.184;2023-03-15T11:48:54;99275.00;;;8.87;100.00
50123;BME280;36021;48.670;6.184;2023-03-15T11:51:23;99275.88;;;8.52;100.00
50123;BME280;36021;48.670;6.184;2023-03-15T11:54:06;99274.53;;;8.50;100.00
50123;BME280;36021;48.670;6.184;2023-03-15T11:56:52;99272.31;;;8.62;100.00
50123;BME280;36021;48.670;6.184;2023-03-15T12:01:57;99275.03;;;8.72;100.00
50123;BME280;36021;48.670;6.184;2023-03-15T12:06:55;99260.91;;;11.18;100.00
50123;BME280;36021;48.670;6.184;2023-03-15T12:09:48;99242.81;;;14.03;100.00
50123;BME280;36021;48.670;6.184;2023-03-15T12:17:43;99221.81;;;20.87;78.13
50123;BME280;36021;48.670;6.184;2023-03-15T12:22:40;99216.41;;;18.60;86.76
50123;BME280;36021;48.670;6.184;2023-03-15T12:25:30;99227.66;;;17.14;95.27
50123;BME280;36021;48.670;6.184;2023-03-15T12:27:57;99226.59;;;14.46;100.00
50123;BME280;36021;48.670;6.184;2023-03-15T12:30:30;99227.59;;;13.65;100.00
50123;BME280;36021;48.670;6.184;2023-03-15T12:33:00;99230.41;;;12.78;100.00
50123;BME280;36021;48.670;6.184;2023-03-15T12:35:32;99229.94;;;12.57;100.00
50123;BME280;36021;48.670;6.184;2023-03-15T12:38:01;99237.94;;;11.46;100.00
50123;BME280;36021;48.670;6.184;2023-03-15T12:43:40;99242.94;;;10.34;100.00
50123;BME280;36021;48.670;6.184;2023-03-15T12:49:28;99243.66;;;10.11;100.00
50123;BME280;36021;48.670;6.184;2023-03-15T12:54:49;99247.66;;;9.90;100.00
50123;BME280;36021;48.670;6.184;2023-03-15T12:57:48;99249.91;;;9.83;100.00
50123;BME280;36021;48.670;6.184;2023-03-15T13:00:17;99236.00;;;11.89;100.00
50123;BME280;36021;48.670;6.184;2023-03-15T13:03:01;99238.72;;;13.51;100.00
50123;BME280;36021;48.670;6.184;2023-03-15T13:05:41;99238.97;;;14.26;100.00
50123;BME280;36021;48.670;6.184;2023-03-15T13:08:19;99232.72;;;14.07;100.00
50123;BME280;36021;48.670;6.184;2023-03-15T13:11:02;99232.53;;;13.68;100.00
50123;BME280;36021;48.670;6.184;2023-03-15T13:13:40;99225.56;;;13.56;100.00
50123;BME280;36021;48.670;6.184;2023-03-15T13:21:33;99211.81;;;15.77;92.17
50123;BME280;36021;48.670;6.184;2023-03-15T13:24:00;99206.88;;;17.03;88.13
50123;BME280;36021;48.670;6.184;2023-03-15T13:26:44;99203.75;;;17.42;77.08
50123;BME280;36021;48.670;6.184;2023-03-15T13:29:20;99202.09;;;17.41;75.42
50123;BME280;36021;48.670;6.184;2023-03-15T13:31:59;99192.09;;;18.19;68.25
50123;BME280;36021;48.670;6.184;2023-03-15T13:34:26;99203.50;;;17.64;72.61
50123;BME280;36021;48.670;6.184;2023-03-15T13:36:57;99196.38;;;17.38;70.32
50123;BME280;36021;48.670;6.184;2023-03-15T13:39:26;99198.13;;;16.66;75.67
50123;BME280;36021;48.670;6.184;2023-03-15T13:42:00;99207.00;;;16.26;81.33
50123;BME280;36021;48.670;6.184;2023-03-15T13:44:27;99214.34;;;15.96;87.68
50123;BME280;36021;48.670;6.184;2023-03-15T13:46:54;99220.84;;;15.35;97.10
50123;BME280;36021;48.670;6.184;2023-03-15T13:49:20;99214.59;;;15.69;97.04
50123;BME280;36021;48.670;6.184;2023-03-15T13:51:47;99218.13;;;15.12;98.35
50123;BME280;36021;48.670;6.184;2023-03-15T13:54:29;99213.94;;;15.72;93.29
50123;BME280;36021;48.670;6.184;2023-03-15T13:57:12;99209.75;;;16.00;87.05
50123;BME280;36021;48.670;6.184;2023-03-15T14:00:07;99208.94;;;15.43;92.76
50123;BME280;36021;48.670;6.184;2023-03-15T14:05:13;99216.78;;;14.26;100.00
50123;BME280;36021;48.670;6.184;2023-03-15T14:07:42;99214.19;;;13.44;100.00
50123;BME280;36021;48.670;6.184;2023-03-15T14:12:42;99217.94;;;12.94;100.00
50123;BME280;36021;48.670;6.184;2023-03-15T14:17:54;99230.47;;;11.89;100.00
50123;BME280;36021;48.670;6.184;2023-03-15T14:20:25;99227.06;;;11.97;100.00